sensor_id;sensor_type;location;lat;lon;timestamp;P1;durP1;ratioP1;P2;durP2;ratioP2
4057;SDS011;2044;48.692;9.020;2022-10-17T00:00:07;12.03;;;2.50;;
4057;SDS011;2044;48.692;9.020;2022-10-17T00:02:36;2.47;;;2.27;;
4057;SDS011;2044;48.692;9.020;2022-10-17T00:05:03;2.43;;;2.20;;
4057;SDS011;2044;48.692;9.020;2022-10-17T00:07:30;3.13;;;2.67;;
4057;SDS011;2044;48.692;9.020;2022-10-17T00:09:56;3.27;;;2.83;;
4057;SDS011;2044;48.692;9.020;2022-10-17T00:12:23;7.30;;;2.60;;
4057;SDS011;2044;48.692;9.020;2022-10-17T00:14:50;7.23;;;3.13;;
4057;SDS011;2044;48.692;9.020;2022-10-17T00:17:17;3.00;;;2.70;;
4057;SDS011;2044;48.692;9.020;2022-10-17T00:19:45;3.33;;;3.03;;
4057;SDS011;2044;48.692;9.020;2022-10-17T00:22:11;5.00;;;3.10;;
4057;SDS011;2044;48.692;9.020;2022-10-17T00:24:38;3.13;;;2.77;;
4057;SDS011;2044;48.692;9.020;2022-10-17T00:27:05;3.37;;;3.07;;
4057;SDS011;2044;48.692;9.020;2022-10-17T00:29:32;5.90;;;3.03;;
4057;SDS011;2044;48.692;9.020;2022-10-17T00:31:59;4.50;;;2.80;;
4057;SDS011;2044;48.692;9.020;2022-10-17T00:34:27;9.37;;;3.00;;
4057;SDS011;2044;48.692;9.020;2022-10-17T00:36:56;5.10;;;2.73;;
4057;SDS011;2044;48.692;9.020;2022-10-17T00:39:23;3.90;;;3.20;;
4057;SDS011;2044;48.692;9.020;2022-10-17T00:41:49;4.00;;;2.90;;
4057;SDS011;2044;48.692;9.020;2022-10-17T00:47:20;5.00;;;3.37;;
4057;SDS011;2044;48.692;9.020;2022-10-17T00:49:48;6.30;;;3.83;;
4057;SDS011;2044;48.692;9.020;2022-10-17T00:52:16;6.40;;;3.40;;
4057;SDS011;2044;48.692;9.020;2022-10-17T00:54:47;6.10;;;3.27;;
4057;SDS011;2044;48.692;9.020;2022-10-17T00:57:16;7.30;;;3.40;;
4057;SDS011;2044;48.692;9.020;2022-10-17T00:59:44;4.33;;;3.73;;
4057;SDS011;2044;48.692;9.020;2022-10-17T01:02:15;7.97;;;3.87;;
4057;SDS011;2044;48.692;9.020;2022-10-17T01:04:44;4.17;;;3.10;;
4057;SDS011;2044;48.692;9.020;2022-10-17T01:07:13;10.50;;;2.97;;
4057;SDS011;2044;48.692;9.020;2022-10-17T01:09:41;4.97;;;3.47;;
4057;SDS011;2044;48.692;9.020;2022-10-17T01:12:10;3.70;;;3.17;;
4057;SDS011;2044;48.692;9.020;2022-10-17T01:14:46;4.40;;;3.13;;
4057;SDS011;2044;48.692;9.020;2022-10-17T01:17:22;4.20;;;3.50;;
4057;SDS011;2044;48.692;9.020;2022-10-17T01:19:58;9.53;;;3.03;;
4057;SDS011;2044;48.692;9.020;2022-10-17T01:22:50;13.90;;;2.83;;
4057;SDS011;2044;48.692;9.020;2022-10-17T01:25:33;7.83;;;3.27;;
4057;SDS011;2044;48.692;9.020;2022-10-17T01:28:11;6.53;;;3.20;;
4057;SDS011;2044;48.692;9.020;2022-10-17T01:30:55;4.90;;;2.93;;
4057;SDS011;2044;48.692;9.020;2022-10-17T01:33:30;4.93;;;3.13;;
4057;SDS011;2044;48.692;9.020;2022-10-17T01:36:07;4.13;;;2.93;;
4057;SDS011;2044;48.692;9.020;2022-10-17T01:38:37;3.17;;;2.87;;
4057;SDS011;2044;48.692;9.020;2022-10-17T01:41:09;3.17;;;2.87;;
4057;SDS011;2044;48.692;9.020;2022-10-17T01:43:46;5.40;;;2.47;;
4057;SDS011;2044;48.692;9.020;2022-10-17T01:46:21;3.30;;;3.00;;
4057;SDS011;2044;48.692;9.020;2022-10-17T01:48:51;6.27;;;2.93;;
4057;SDS011;2044;48.692;9.020;2022-10-17T01:51:22;3.37;;;2.77;;
4057;SDS011;2044;48.692;9.020;2022-10-17T01:53:54;5.10;;;2.80;;
4057;SDS011;2044;48.692;9.020;2022-10-17T01:56:26;3.27;;;2.70;;
4057;SDS011;2044;48.692;9.020;2022-10-17T01:58:57;3.27;;;2.70;;
4057;SDS011;2044;48.692;9.020;2022-10-17T02:01:31;3.10;;;2.70;;
4057;SDS011;2044;48.692;9.020;2022-10-17T02:03:59;4.83;;;2.80;;
4057;SDS011;2044;48.692;9.020;2022-10-17T02:06:28;6.03;;;2.73;;
4057;SDS011;2044;48.692;9.020;2022-10-17T02:08:59;9.00;;;2.60;;
4057;SDS011;2044;48.692;9.020;2022-10-17T02:11:26;7.37;;;3.63;;
4057;SDS011;2044;48.692;9.020;2022-10-17T02:13:58;5.83;;;3.50;;
4057;SDS011;2044;48.692;9.020;2022-10-17T02:16:40;14.20;;;3.50;;
4057;SDS011;2044;48.692;9.020;2022-10-17T02:22:04;6.17;;;3.40;;
4057;SDS011;2044;48.692;9.020;2022-10-17T02:24:44;7.60;;;3.40;;
4057;SDS011;2044;48.692;9.020;2022-10-17T02:27:16;5.57;;;3.47;;
4057;SDS011;2044;48.692;9.020;2022-10-17T02:29:52;7.90;;;3.43;;
4057;SDS011;2044;48.692;9.020;2022-10-17T02:32:27;8.53;;;3.50;;
4057;SDS011;2044;48.692;9.020;2022-10-17T02:35:00;5.53;;;3.60;;
4057;SDS011;2044;48.692;9.020;2022-10-17T02:37:28;4.67;;;4.00;;
4057;SDS011;2044;48.692;9.020;2022-10-17T02:39:58;4.33;;;3.93;;
4057;SDS011;2044;48.692;9.020;2022-10-17T02:42:26;11.60;;;4.40;;
4057;SDS011;2044;48.692;9.020;2022-10-17T02:44:54;6.20;;;3.97;;
4057;SDS011;2044;48.692;9.020;2022-10-17T02:47:25;5.70;;;4.50;;
4057;SDS011;2044;48.692;9.020;2022-10-17T02:49:57;5.23;;;3.83;;
4057;SDS011;2044;48.692;9.020;2022-10-17T02:52:26;5.93;;;3.73;;
4057;SDS011;2044;48.692;9.020;2022-10-17T02:54:56;4.87;;;4.00;;
4057;SDS011;2044;48.692;9.020;2022-10-17T02:57:29;12.10;;;4.80;;
4057;SDS011;2044;48.692;9.020;2022-10-17T03:00:01;7.10;;;4.10;;
4057;SDS011;2044;48.692;9.020;2022-10-17T03:02:38;12.33;;;4.70;;
4057;SDS011;2044;48.692;9.020;2022-10-17T03:05:07;7.80;;;4.50;;
4057;SDS011;2044;48.692;9.020;2022-10-17T03:07:34;6.80;;;3.97;;
4057;SDS011;2044;48.692;9.020;2022-10-17T03:10:01;4.73;;;4.00;;
4057;SDS011;2044;48.692;9.020;2022-10-17T03:12:28;6.67;;;4.20;;
4057;SDS011;2044;48.692;9.020;2022-10-17T03:14:54;4.53;;;3.70;;
4057;SDS011;2044;48.692;9.020;2022-10-17T03:17:21;4.20;;;3.70;;
4057;SDS011;2044;48.692;9.020;2022-10-17T03:19:49;6.20;;;3.87;;
4057;SDS011;2044;48.692;9.020;2022-10-17T03:22:16;5.63;;;4.07;;
4057;SDS011;2044;48.692;9.020;2022-10-17T03:24:42;4.87;;;4.03;;
4057;SDS011;2044;48.692;9.020;2022-10-17T03:27:09;5.33;;;4.00;;
4057;SDS011;2044;48.692;9.020;2022-10-17T03:29:36;6.87;;;4.67;;
4057;SDS011;2044;48.692;9.020;2022-10-17T03:32:03;6.53;;;4.00;;
4057;SDS011;2044;48.692;9.020;2022-10-17T03:34:30;7.00;;;4.30;;
4057;SDS011;2044;48.692;9.020;2022-10-17T03:36:58;7.50;;;4.53;;
4057;SDS011;2044;48.692;9.020;2022-10-17T03:39:25;8.83;;;5.80;;
4057;SDS011;2044;48.692;9.020;2022-10-17T03:41:51;8.93;;;5.50;;
4057;SDS011;2044;48.692;9.020;2022-10-17T03:44:18;6.10;;;4.83;;
4057;SDS011;2044;48.692;9.020;2022-10-17T03:46:45;6.53;;;5.27;;
4057;SDS011;2044;48.692;9.020;2022-10-17T03:49:11;8.53;;;4.70;;
4057;SDS011;2044;48.692;9.020;2022-10-17T03:51:38;9.33;;;4.97;;
4057;SDS011;2044;48.692;9.020;2022-10-17T03:54:06;11.80;;;5.53;;
4057;SDS011;2044;48.692;9.020;2022-10-17T03:56:33;8.60;;;4.70;;
4057;SDS011;2044;48.692;9.020;2022-10-17T03:58:59;10.10;;;4.90;;
4057;SDS011;2044;48.692;9.020;2022-10-17T04:01:26;5.73;;;4.10;;
4057;SDS011;2044;48.692;9.020;2022-10-17T04:03:54;5.03;;;4.40;;
4057;SDS011;2044;48.692;9.020;2022-10-17T04:06:21;6.80;;;4.63;;
4057;SDS011;2044;48.692;9.020;2022-10-17T04:08:49;4.10;;;3.70;;
4057;SDS011;2044;48.692;9.020;2022-10-17T04:11:18;5.77;;;3.80;;
4057;SDS011;2044;48.692;9.020;2022-10-17T04:13:46;7.80;;;4.30;;
4057;SDS011;2044;48.692;9.020;2022-10-17T04:16:13;5.73;;;3.90;;
4057;SDS011;2044;48.692;9.020;2022-10-17T04:18:41;8.47;;;3.67;;
4057;SDS011;2044;48.692;9.020;2022-10-17T04:21:09;4.43;;;3.43;;
4057;SDS011;2044;48.692;9.020;2022-10-17T04:23:36;3.90;;;3.50;;
4057;SDS011;2044;48.692;9.020;2022-10-17T04:26:03;7.50;;;3.40;;
4057;SDS011;2044;48.692;9.020;2022-10-17T04:28:32;8.33;;;5.10;;
4057;SDS011;2044;48.692;9.020;2022-10-17T04:31:00;3.73;;;3.13;;
4057;SDS011;2044;48.692;9.020;2022-10-17T04:33:28;6.07;;;3.20;;
4057;SDS011;2044;48.692;9.020;2022-10-17T04:35:56;4.17;;;3.30;;
4057;SDS011;2044;48.692;9.020;2022-10-17T04:38:23;4.13;;;3.00;;
4057;SDS011;2044;48.692;9.020;2022-10-17T04:40:50;12.13;;;3.90;;
4057;SDS011;2044;48.692;9.020;2022-10-17T04:43:17;7.87;;;3.30;;
4057;SDS011;2044;48.692;9.020;2022-10-17T04:45:45;6.07;;;3.97;;
4057;SDS011;2044;48.692;9.020;2022-10-17T04:48:12;5.10;;;3.57;;
4057;SDS011;2044;48.692;9.020;2022-10-17T04:50:38;5.03;;;4.07;;
4057;SDS011;2044;48.692;9.020;2022-10-17T04:53:05;8.43;;;3.80;;
4057;SDS011;2044;48.692;9.020;2022-10-17T04:55:35;7.60;;;4.63;;
4057;SDS011;2044;48.692;9.020;2022-10-17T04:58:02;10.70;;;5.10;;
4057;SDS011;2044;48.692;9.020;2022-10-17T05:00:29;8.40;;;4.53;;
4057;SDS011;2044;48.692;9.020;2022-10-17T05:02:57;7.60;;;5.10;;
4057;SDS011;2044;48.692;9.020;2022-10-17T05:05:24;6.70;;;5.03;;
4057;SDS011;2044;48.692;9.020;2022-10-17T05:07:51;7.67;;;5.60;;
4057;SDS011;2044;48.692;9.020;2022-10-17T05:10:19;6.73;;;4.60;;
4057;SDS011;2044;48.692;9.020;2022-10-17T05:12:46;8.23;;;5.17;;
4057;SDS011;2044;48.692;9.020;2022-10-17T05:15:13;10.73;;;4.57;;
4057;SDS011;2044;48.692;9.020;2022-10-17T05:17:40;6.90;;;4.87;;
4057;SDS011;2044;48.692;9.020;2022-10-17T05:20:09;7.00;;;4.80;;
4057;SDS011;2044;48.692;9.020;2022-10-17T05:22:36;6.40;;;4.67;;
4057;SDS011;2044;48.692;9.020;2022-10-17T05:25:03;6.13;;;4.67;;
4057;SDS011;2044;48.692;9.020;2022-10-17T05:27:31;8.63;;;4.27;;
4057;SDS011;2044;48.692;9.020;2022-10-17T05:29:58;5.27;;;3.90;;
4057;SDS011;2044;48.692;9.020;2022-10-17T05:32:25;8.13;;;4.10;;
4057;SDS011;2044;48.692;9.020;2022-10-17T05:34:51;4.20;;;3.80;;
4057;SDS011;2044;48.692;9.020;2022-10-17T05:37:19;5.73;;;4.03;;
4057;SDS011;2044;48.692;9.020;2022-10-17T05:39:46;10.87;;;4.43;;
4057;SDS011;2044;48.692;9.020;2022-10-17T05:42:13;7.17;;;4.00;;
4057;SDS011;2044;48.692;9.020;2022-10-17T05:44:39;8.10;;;3.13;;
4057;SDS011;2044;48.692;9.020;2022-10-17T05:47:06;4.63;;;3.20;;
4057;SDS011;2044;48.692;9.020;2022-10-17T05:49:33;6.07;;;3.80;;
4057;SDS011;2044;48.692;9.020;2022-10-17T05:52:00;3.80;;;3.37;;
4057;SDS011;2044;48.692;9.020;2022-10-17T05:54:28;5.27;;;3.63;;
4057;SDS011;2044;48.692;9.020;2022-10-17T05:56:55;8.00;;;4.50;;
4057;SDS011;2044;48.692;9.020;2022-10-17T05:59:23;11.37;;;4.30;;
4057;SDS011;2044;48.692;9.020;2022-10-17T06:01:50;7.60;;;4.63;;
4057;SDS011;2044;48.692;9.020;2022-10-17T06:04:18;8.73;;;5.00;;
4057;SDS011;2044;48.692;9.020;2022-10-17T06:06:44;6.37;;;4.20;;
4057;SDS011;2044;48.692;9.020;2022-10-17T06:09:11;6.17;;;3.60;;
4057;SDS011;2044;48.692;9.020;2022-10-17T06:11:39;5.53;;;3.10;;
4057;SDS011;2044;48.692;9.020;2022-10-17T06:14:06;8.90;;;4.60;;
4057;SDS011;2044;48.692;9.020;2022-10-17T06:16:33;7.97;;;4.23;;
4057;SDS011;2044;48.692;9.020;2022-10-17T06:19:00;9.40;;;4.53;;
4057;SDS011;2044;48.692;9.020;2022-10-17T06:21:26;16.20;;;6.33;;
4057;SDS011;2044;48.692;9.020;2022-10-17T06:23:53;8.10;;;5.20;;
4057;SDS011;2044;48.692;9.020;2022-10-17T06:26:20;7.67;;;5.00;;
4057;SDS011;2044;48.692;9.020;2022-10-17T06:28:48;13.07;;;6.00;;
4057;SDS011;2044;48.692;9.020;2022-10-17T06:31:15;9.97;;;6.47;;
4057;SDS011;2044;48.692;9.020;2022-10-17T06:33:42;8.57;;;5.63;;
4057;SDS011;2044;48.692;9.020;2022-10-17T06:36:10;7.20;;;6.20;;
4057;SDS011;2044;48.692;9.020;2022-10-17T06:38:39;6.10;;;5.50;;
4057;SDS011;2044;48.692;9.020;2022-10-17T06:41:07;6.83;;;5.40;;
4057;SDS011;2044;48.692;9.020;2022-10-17T06:43:37;9.07;;;5.13;;
4057;SDS011;2044;48.692;9.020;2022-10-17T06:46:05;7.60;;;5.07;;
4057;SDS011;2044;48.692;9.020;2022-10-17T06:48:32;6.73;;;5.17;;
4057;SDS011;2044;48.692;9.020;2022-10-17T06:51:00;6.80;;;4.87;;
4057;SDS011;2044;48.692;9.020;2022-10-17T06:53:28;9.47;;;4.63;;
4057;SDS011;2044;48.692;9.020;2022-10-17T06:55:56;5.77;;;4.27;;
4057;SDS011;2044;48.692;9.020;2022-10-17T06:58:26;6.37;;;4.60;;
4057;SDS011;2044;48.692;9.020;2022-10-17T07:00:56;10.93;;;4.93;;
4057;SDS011;2044;48.692;9.020;2022-10-17T07:03:25;6.40;;;4.33;;
4057;SDS011;2044;48.692;9.020;2022-10-17T07:05:52;7.53;;;4.47;;
4057;SDS011;2044;48.692;9.020;2022-10-17T07:08:19;5.07;;;4.30;;
4057;SDS011;2044;48.692;9.020;2022-10-17T07:10:46;8.13;;;4.33;;
4057;SDS011;2044;48.692;9.020;2022-10-17T07:13:13;5.40;;;4.17;;
4057;SDS011;2044;48.692;9.020;2022-10-17T07:15:40;4.60;;;3.87;;
4057;SDS011;2044;48.692;9.020;2022-10-17T07:18:07;5.53;;;3.73;;
4057;SDS011;2044;48.692;9.020;2022-10-17T07:20:36;6.57;;;4.40;;
4057;SDS011;2044;48.692;9.020;2022-10-17T07:23:03;5.03;;;3.70;;
4057;SDS011;2044;48.692;9.020;2022-10-17T07:25:29;9.47;;;4.03;;
4057;SDS011;2044;48.692;9.020;2022-10-17T07:27:57;6.67;;;4.20;;
4057;SDS011;2044;48.692;9.020;2022-10-17T07:30:23;3.90;;;3.60;;
4057;SDS011;2044;48.692;9.020;2022-10-17T07:32:51;5.13;;;4.60;;
4057;SDS011;2044;48.692;9.020;2022-10-17T07:35:18;5.20;;;4.83;;
4057;SDS011;2044;48.692;9.020;2022-10-17T07:37:47;4.83;;;4.20;;
4057;SDS011;2044;48.692;9.020;2022-10-17T07:40:14;5.50;;;5.00;;
4057;SDS011;2044;48.692;9.020;2022-10-17T07:42:40;4.50;;;4.17;;
4057;SDS011;2044;48.692;9.020;2022-10-17T07:45:08;5.70;;;5.20;;
4057;SDS011;2044;48.692;9.020;2022-10-17T07:47:35;5.27;;;4.87;;
4057;SDS011;2044;48.692;9.020;2022-10-17T07:50:02;7.00;;;5.00;;
4057;SDS011;2044;48.692;9.020;2022-10-17T07:52:30;5.93;;;4.80;;
4057;SDS011;2044;48.692;9.020;2022-10-17T07:54:58;5.47;;;5.07;;
4057;SDS011;2044;48.692;9.020;2022-10-17T07:57:25;5.60;;;5.10;;
4057;SDS011;2044;48.692;9.020;2022-10-17T07:59:51;5.47;;;4.97;;
4057;SDS011;2044;48.692;9.020;2022-10-17T08:02:20;5.50;;;5.00;;
4057;SDS011;2044;48.692;9.020;2022-10-17T08:04:48;5.43;;;4.90;;
4057;SDS011;2044;48.692;9.020;2022-10-17T08:07:15;6.33;;;4.90;;
4057;SDS011;2044;48.692;9.020;2022-10-17T08:09:41;5.57;;;5.17;;
4057;SDS011;2044;48.692;9.020;2022-10-17T08:12:10;5.43;;;4.90;;
4057;SDS011;2044;48.692;9.020;2022-10-17T08:14:38;7.03;;;5.00;;
4057;SDS011;2044;48.692;9.020;2022-10-17T08:17:05;6.03;;;5.63;;
4057;SDS011;2044;48.692;9.020;2022-10-17T08:19:32;5.83;;;5.33;;
4057;SDS011;2044;48.692;9.020;2022-10-17T08:21:59;5.77;;;5.37;;
4057;SDS011;2044;48.692;9.020;2022-10-17T08:24:26;5.37;;;5.07;;
4057;SDS011;2044;48.692;9.020;2022-10-17T08:26:53;5.23;;;4.83;;
4057;SDS011;2044;48.692;9.020;2022-10-17T08:29:23;5.20;;;4.87;;
4057;SDS011;2044;48.692;9.020;2022-10-17T08:31:50;4.90;;;4.60;;
4057;SDS011;2044;48.692;9.020;2022-10-17T08:34:17;4.60;;;4.30;;
4057;SDS011;2044;48.692;9.020;2022-10-17T08:36:44;4.77;;;4.57;;
4057;SDS011;2044;48.692;9.020;2022-10-17T08:39:10;8.67;;;5.30;;
4057;SDS011;2044;48.692;9.020;2022-10-17T08:41:47;5.57;;;5.00;;
4057;SDS011;2044;48.692;9.020;2022-10-17T08:44:25;5.33;;;5.03;;
4057;SDS011;2044;48.692;9.020;2022-10-17T08:47:01;5.60;;;5.30;;
4057;SDS011;2044;48.692;9.020;2022-10-17T08:49:34;5.80;;;5.50;;
4057;SDS011;2044;48.692;9.020;2022-10-17T08:52:05;6.90;;;5.50;;
4057;SDS011;2044;48.692;9.020;2022-10-17T08:54:38;6.70;;;6.20;;
4057;SDS011;2044;48.692;9.020;2022-10-17T08:57:10;5.80;;;5.50;;
4057;SDS011;2044;48.692;9.020;2022-10-17T08:59:40;5.93;;;5.63;;
4057;SDS011;2044;48.692;9.020;2022-10-17T09:05:07;6.10;;;5.70;;
4057;SDS011;2044;48.692;9.020;2022-10-17T09:07:47;6.20;;;5.57;;
4057;SDS011;2044;48.692;9.020;2022-10-17T09:10:20;6.07;;;5.67;;
4057;SDS011;2044;48.692;9.020;2022-10-17T09:12:55;6.10;;;5.63;;
4057;SDS011;2044;48.692;9.020;2022-10-17T09:18:31;5.90;;;5.50;;
4057;SDS011;2044;48.692;9.020;2022-10-17T09:21:04;6.07;;;5.77;;
4057;SDS011;2044;48.692;9.020;2022-10-17T09:23:42;6.50;;;6.10;;
4057;SDS011;2044;48.692;9.020;2022-10-17T09:26:10;7.03;;;6.70;;
4057;SDS011;2044;48.692;9.020;2022-10-17T09:28:38;7.17;;;6.77;;
4057;SDS011;2044;48.692;9.020;2022-10-17T09:31:11;7.20;;;6.80;;
4057;SDS011;2044;48.692;9.020;2022-10-17T09:33:42;7.10;;;6.70;;
4057;SDS011;2044;48.692;9.020;2022-10-17T09:36:12;7.23;;;6.93;;
4057;SDS011;2044;48.692;9.020;2022-10-17T09:38:43;7.27;;;6.70;;
4057;SDS011;2044;48.692;9.020;2022-10-17T09:41:15;7.23;;;6.73;;
4057;SDS011;2044;48.692;9.020;2022-10-17T09:43:44;6.97;;;6.20;;
4057;SDS011;2044;48.692;9.020;2022-10-17T09:46:14;7.30;;;6.80;;
4057;SDS011;2044;48.692;9.020;2022-10-17T09:48:47;7.47;;;7.17;;
4057;SDS011;2044;48.692;9.020;2022-10-17T09:51:17;8.03;;;7.47;;
4057;SDS011;2044;48.692;9.020;2022-10-17T09:53:45;7.63;;;6.90;;
4057;SDS011;2044;48.692;9.020;2022-10-17T09:56:16;7.67;;;7.37;;
4057;SDS011;2044;48.692;9.020;2022-10-17T09:58:45;9.00;;;7.50;;
4057;SDS011;2044;48.692;9.020;2022-10-17T10:01:18;8.20;;;7.70;;
4057;SDS011;2044;48.692;9.020;2022-10-17T10:03:47;7.83;;;7.43;;
4057;SDS011;2044;48.692;9.020;2022-10-17T10:06:15;7.70;;;7.40;;
4057;SDS011;2044;48.692;9.020;2022-10-17T10:08:49;8.33;;;7.97;;
4057;SDS011;2044;48.692;9.020;2022-10-17T10:11:18;9.20;;;8.60;;
4057;SDS011;2044;48.692;9.020;2022-10-17T10:13:49;8.80;;;8.40;;
4057;SDS011;2044;48.692;9.020;2022-10-17T10:16:22;9.20;;;8.70;;
4057;SDS011;2044;48.692;9.020;2022-10-17T10:18:55;9.17;;;8.73;;
4057;SDS011;2044;48.692;9.020;2022-10-17T10:21:22;8.80;;;8.40;;
4057;SDS011;2044;48.692;9.020;2022-10-17T10:24:04;8.87;;;8.47;;
4057;SDS011;2044;48.692;9.020;2022-10-17T10:26:37;8.57;;;8.27;;
4057;SDS011;2044;48.692;9.020;2022-10-17T10:29:06;8.87;;;8.47;;
4057;SDS011;2044;48.692;9.020;2022-10-17T10:31:49;8.80;;;8.40;;
4057;SDS011;2044;48.692;9.020;2022-10-17T10:34:18;8.63;;;8.23;;
4057;SDS011;2044;48.692;9.020;2022-10-17T10:36:49;9.33;;;8.83;;
4057;SDS011;2044;48.692;9.020;2022-10-17T10:39:27;8.70;;;8.20;;
4057;SDS011;2044;48.692;9.020;2022-10-17T10:42:00;9.20;;;8.70;;
4057;SDS011;2044;48.692;9.020;2022-10-17T10:44:29;9.13;;;8.50;;
4057;SDS011;2044;48.692;9.020;2022-10-17T10:47:06;9.87;;;9.10;;
4057;SDS011;2044;48.692;9.020;2022-10-17T10:49:35;9.30;;;8.70;;
4057;SDS011;2044;48.692;9.020;2022-10-17T10:52:04;8.83;;;8.43;;
4057;SDS011;2044;48.692;9.020;2022-10-17T10:54:35;9.43;;;8.73;;
4057;SDS011;2044;48.692;9.020;2022-10-17T10:57:05;8.77;;;8.47;;
4057;SDS011;2044;48.692;9.020;2022-10-17T10:59:36;9.40;;;8.90;;
4057;SDS011;2044;48.692;9.020;2022-10-17T11:02:14;9.10;;;8.50;;
4057;SDS011;2044;48.692;9.020;2022-10-17T11:04:45;8.80;;;8.20;;
4057;SDS011;2044;48.692;9.020;2022-10-17T11:07:16;9.13;;;8.53;;
4057;SDS011;2044;48.692;9.020;2022-10-17T11:09:48;8.90;;;8.30;;
4057;SDS011;2044;48.692;9.020;2022-10-17T11:12:19;8.80;;;8.40;;
4057;SDS011;2044;48.692;9.020;2022-10-17T11:14:50;9.07;;;8.30;;
4057;SDS011;2044;48.692;9.020;2022-10-17T11:17:25;8.50;;;7.90;;
4057;SDS011;2044;48.692;9.020;2022-10-17T11:20:00;8.73;;;8.23;;
4057;SDS011;2044;48.692;9.020;2022-10-17T11:22:35;9.20;;;8.50;;
4057;SDS011;2044;48.692;9.020;2022-10-17T11:25:08;9.73;;;9.13;;
4057;SDS011;2044;48.692;9.020;2022-10-17T11:27:45;9.57;;;8.87;;
4057;SDS011;2044;48.692;9.020;2022-10-17T11:30:12;8.13;;;7.73;;
4057;SDS011;2044;48.692;9.020;2022-10-17T11:32:42;8.30;;;7.90;;
4057;SDS011;2044;48.692;9.020;2022-10-17T11:35:14;9.07;;;8.57;;
4057;SDS011;2044;48.692;9.020;2022-10-17T11:37:47;9.77;;;9.17;;
4057;SDS011;2044;48.692;9.020;2022-10-17T11:40:19;8.60;;;8.20;;
4057;SDS011;2044;48.692;9.020;2022-10-17T11:42:51;8.67;;;8.17;;
4057;SDS011;2044;48.692;9.020;2022-10-17T11:45:22;8.67;;;7.93;;
4057;SDS011;2044;48.692;9.020;2022-10-17T11:47:54;8.73;;;8.17;;
4057;SDS011;2044;48.692;9.020;2022-10-17T11:50:26;8.00;;;7.70;;
4057;SDS011;2044;48.692;9.020;2022-10-17T11:52:57;8.77;;;8.10;;
4057;SDS011;2044;48.692;9.020;2022-10-17T11:55:30;8.50;;;7.87;;
4057;SDS011;2044;48.692;9.020;2022-10-17T11:58:05;8.63;;;8.13;;
4057;SDS011;2044;48.692;9.020;2022-10-17T12:00:51;8.37;;;7.93;;
4057;SDS011;2044;48.692;9.020;2022-10-17T12:03:31;14.43;;;13.43;;
4057;SDS011;2044;48.692;9.020;2022-10-17T12:06:10;14.40;;;13.60;;
4057;SDS011;2044;48.692;9.020;2022-10-17T12:08:44;13.83;;;13.17;;
4057;SDS011;2044;48.692;9.020;2022-10-17T12:11:21;14.20;;;13.03;;
4057;SDS011;2044;48.692;9.020;2022-10-17T12:13:58;14.00;;;13.40;;
4057;SDS011;2044;48.692;9.020;2022-10-17T12:16:35;13.70;;;13.00;;
4057;SDS011;2044;48.692;9.020;2022-10-17T12:19:22;12.90;;;12.30;;
4057;SDS011;2044;48.692;9.020;2022-10-17T12:24:51;13.40;;;12.60;;
4057;SDS011;2044;48.692;9.020;2022-10-17T12:30:17;13.00;;;12.50;;
4057;SDS011;2044;48.692;9.020;2022-10-17T12:32:54;13.67;;;13.03;;
4057;SDS011;2044;48.692;9.020;2022-10-17T12:35:28;13.43;;;12.57;;
4057;SDS011;2044;48.692;9.020;2022-10-17T12:38:00;13.00;;;12.30;;
4057;SDS011;2044;48.692;9.020;2022-10-17T12:40:51;13.90;;;12.90;;
4057;SDS011;2044;48.692;9.020;2022-10-17T12:49:37;12.77;;;12.17;;
4057;SDS011;2044;48.692;9.020;2022-10-17T12:52:14;13.17;;;12.53;;
4057;SDS011;2044;48.692;9.020;2022-10-17T12:54:46;13.40;;;12.60;;
4057;SDS011;2044;48.692;9.020;2022-10-17T12:57:18;13.67;;;12.90;;
4057;SDS011;2044;48.692;9.020;2022-10-17T12:59:48;12.67;;;12.00;;
4057;SDS011;2044;48.692;9.020;2022-10-17T13:02:17;13.90;;;13.10;;
4057;SDS011;2044;48.692;9.020;2022-10-17T13:04:46;13.30;;;12.80;;
4057;SDS011;2044;48.692;9.020;2022-10-17T13:07:17;13.40;;;12.80;;
4057;SDS011;2044;48.692;9.020;2022-10-17T13:09:46;12.17;;;11.77;;
4057;SDS011;2044;48.692;9.020;2022-10-17T13:12:17;12.20;;;11.70;;
4057;SDS011;2044;48.692;9.020;2022-10-17T13:14:49;12.80;;;12.03;;
4057;SDS011;2044;48.692;9.020;2022-10-17T13:17:21;12.70;;;12.13;;
4057;SDS011;2044;48.692;9.020;2022-10-17T13:19:50;11.00;;;10.50;;
4057;SDS011;2044;48.692;9.020;2022-10-17T13:22:19;11.00;;;10.30;;
4057;SDS011;2044;48.692;9.020;2022-10-17T13:24:48;10.50;;;10.10;;
4057;SDS011;2044;48.692;9.020;2022-10-17T13:27:20;10.67;;;10.23;;
4057;SDS011;2044;48.692;9.020;2022-10-17T13:29:53;11.70;;;10.90;;
4057;SDS011;2044;48.692;9.020;2022-10-17T13:32:21;11.40;;;10.80;;
4057;SDS011;2044;48.692;9.020;2022-10-17T13:35:05;11.20;;;10.70;;
4057;SDS011;2044;48.692;9.020;2022-10-17T13:37:35;11.00;;;10.40;;
4057;SDS011;2044;48.692;9.020;2022-10-17T13:40:05;11.43;;;10.53;;
4057;SDS011;2044;48.692;9.020;2022-10-17T13:42:35;12.10;;;11.47;;
4057;SDS011;2044;48.692;9.020;2022-10-17T13:45:08;12.93;;;12.23;;
4057;SDS011;2044;48.692;9.020;2022-10-17T13:47:41;12.30;;;11.50;;
4057;SDS011;2044;48.692;9.020;2022-10-17T13:50:12;11.77;;;11.17;;
4057;SDS011;2044;48.692;9.020;2022-10-17T13:52:46;12.10;;;11.60;;
4057;SDS011;2044;48.692;9.020;2022-10-17T13:55:14;13.40;;;12.67;;
4057;SDS011;2044;48.692;9.020;2022-10-17T13:57:44;11.87;;;11.27;;
4057;SDS011;2044;48.692;9.020;2022-10-17T14:00:14;12.67;;;11.87;;
4057;SDS011;2044;48.692;9.020;2022-10-17T14:02:44;11.50;;;11.00;;
4057;SDS011;2044;48.692;9.020;2022-10-17T14:05:13;11.70;;;11.20;;
4057;SDS011;2044;48.692;9.020;2022-10-17T14:07:42;11.50;;;11.00;;
4057;SDS011;2044;48.692;9.020;2022-10-17T14:10:19;11.63;;;11.03;;
4057;SDS011;2044;48.692;9.020;2022-10-17T14:12:48;11.00;;;10.40;;
4057;SDS011;2044;48.692;9.020;2022-10-17T14:15:16;10.93;;;10.43;;
4057;SDS011;2044;48.692;9.020;2022-10-17T14:17:43;11.50;;;10.90;;
4057;SDS011;2044;48.692;9.020;2022-10-17T14:20:16;10.50;;;10.10;;
4057;SDS011;2044;48.692;9.020;2022-10-17T14:22:45;6.80;;;6.50;;
4057;SDS011;2044;48.692;9.020;2022-10-17T14:25:27;6.80;;;6.30;;
4057;SDS011;2044;48.692;9.020;2022-10-17T14:27:55;6.77;;;6.37;;
4057;SDS011;2044;48.692;9.020;2022-10-17T14:30:32;6.73;;;6.40;;
4057;SDS011;2044;48.692;9.020;2022-10-17T14:33:00;6.50;;;6.10;;
4057;SDS011;2044;48.692;9.020;2022-10-17T14:35:28;7.30;;;6.80;;
4057;SDS011;2044;48.692;9.020;2022-10-17T14:37:56;7.13;;;6.80;;
4057;SDS011;2044;48.692;9.020;2022-10-17T14:40:27;7.20;;;6.90;;
4057;SDS011;2044;48.692;9.020;2022-10-17T14:42:56;7.73;;;7.17;;
4057;SDS011;2044;48.692;9.020;2022-10-17T14:45:26;7.20;;;6.80;;
4057;SDS011;2044;48.692;9.020;2022-10-17T14:47:56;7.77;;;7.20;;
4057;SDS011;2044;48.692;9.020;2022-10-17T14:50:28;7.40;;;7.00;;
4057;SDS011;2044;48.692;9.020;2022-10-17T14:53:00;6.67;;;6.30;;
4057;SDS011;2044;48.692;9.020;2022-10-17T14:55:31;7.17;;;6.70;;
4057;SDS011;2044;48.692;9.020;2022-10-17T14:57:59;7.73;;;7.27;;
4057;SDS011;2044;48.692;9.020;2022-10-17T15:00:26;7.90;;;7.17;;
4057;SDS011;2044;48.692;9.020;2022-10-17T15:02:53;7.40;;;6.80;;
4057;SDS011;2044;48.692;9.020;2022-10-17T15:05:21;7.50;;;7.20;;
4057;SDS011;2044;48.692;9.020;2022-10-17T15:07:49;7.73;;;7.17;;
4057;SDS011;2044;48.692;9.020;2022-10-17T15:10:24;7.20;;;6.80;;
4057;SDS011;2044;48.692;9.020;2022-10-17T15:12:56;6.80;;;6.50;;
4057;SDS011;2044;48.692;9.020;2022-10-17T15:15:24;6.70;;;6.40;;
4057;SDS011;2044;48.692;9.020;2022-10-17T15:17:51;6.40;;;6.20;;
4057;SDS011;2044;48.692;9.020;2022-10-17T15:20:17;7.03;;;6.50;;
4057;SDS011;2044;48.692;9.020;2022-10-17T15:22:45;7.00;;;6.60;;
4057;SDS011;2044;48.692;9.020;2022-10-17T15:25:12;12.30;;;6.77;;
4057;SDS011;2044;48.692;9.020;2022-10-17T15:27:38;7.40;;;6.90;;
4057;SDS011;2044;48.692;9.020;2022-10-17T15:30:10;7.10;;;6.60;;
4057;SDS011;2044;48.692;9.020;2022-10-17T15:32:43;6.70;;;6.30;;
4057;SDS011;2044;48.692;9.020;2022-10-17T15:35:10;6.63;;;6.33;;
4057;SDS011;2044;48.692;9.020;2022-10-17T15:37:36;7.17;;;6.67;;
4057;SDS011;2044;48.692;9.020;2022-10-17T15:40:04;7.03;;;6.63;;
4057;SDS011;2044;48.692;9.020;2022-10-17T15:42:32;6.83;;;6.50;;
4057;SDS011;2044;48.692;9.020;2022-10-17T15:44:59;6.90;;;6.30;;
4057;SDS011;2044;48.692;9.020;2022-10-17T15:47:28;10.53;;;6.80;;
4057;SDS011;2044;48.692;9.020;2022-10-17T15:49:57;7.10;;;6.70;;